Center, Missouri
Current Conditions -  °F | °C
As of 2:15 PM on Saturday 20 Dec 2014 (Local Time) from KHAE Reporting Station
Haze Haze  
Wind Chill: 37°   Ceiling: 2100
Heat Index: 37°   Visibility: 5mi
Dew Point: 32°   Wind: 3mph
Humidity: 81%   Direction: 130°SE
Pressure: 30.18"   Gusts: NA
Location:  39.51°N, 91.53°W
Report Text: KHAE 202015Z AUTO 13003KT 5SM HZ OVC021 03/00 A3018 RMK AO2
Loading
Personal Weather Stations






























Interactive Weather Map New forecast layout! Learn more

10-Day Weather Forecast

Advertisements
Track Severe Weather on mobile